MMSDMMCL

Guest
Details From MMSD - LOS CABOS INTL
To MMCL - CULIACAN INTL
Flight Number -
Tags generated
Created
Modified
Stats Distance 157 nm / 291 km
Max Altitude 9,000 ft / 2,743 m
Waypoints 4
Social Downloads 13
Likes 0
Share

Download

Looking for another format? Having issues loading an existing format? Contact us
Advertisement - Login to hide

Notes

Basic altitude profile: - Ascent Rate: 2500ft/min - Ascent Speed: 250kts - Cruise Altitude: 29000ft - Cruise Speed: 285kts - Descent Rate: 1500ft/min - Descent Speed: 250kts Options: - Use NATs: yes - Use PACOTS: yes - Use low airways: yes - Use high airways: yes

Route

MMSD SJD V12 CUL MMCL

ID Type Via Altitude (ft/m) Position (lat/lon) Dist (leg/tot) Name
O MMSD APT - 0 / 0 23.15185 / -109.72104 - / 0 nm LOS CABOS INTL
SJD VOR - 100 / 30 23.14616 / -109.72154 0 / 0 nm CABOS VOR-DME
CUL VOR V12 (AWY-LO) 9,000 / 2,743 24.76443 / -107.47728 156 / 157 nm CULIACAN VOR-DME
O MMCL APT - 0 / 0 24.76566 / -107.47611 0 / 157 nm CULIACAN INTL

Altitude Profile

Advertisement - Login to hide

MMSD

Details ICAO MMSD (SJD)
Name Los Cabos Intl
Region Mexico
Timezone America/Mazatlan (UTC-6.0)
Stats Elevation 378 ft / 115 m (AMSL)
Location 23.152100° -109.721000°
Runways 1
Magnetic Variation 8.028° E

METAR

MMSD 081854Z 17007KT 12SM SKC 33/03 A2992

Decode

TAF

TAF TAF MMSD 081658Z 0818/0918 25010KT P6SM SKC BECMG 0901/0902 00000KT FM091700 24010KT P6SM SKC

Decode

Departure Runways

ID Width Length Bearing (true/mag) Surface Threshold Overrun Markings Lighting
16 148 ft / 45 m 9,898 ft / 3,017 m 174.05° / 166.02° ASPHALT 0 ft / 0 m 184 ft / 56 m PREC-APP CENTERLINE EDGE THRESHOLD
34 148 ft / 45 m 9,898 ft / 3,017 m 354.05° / 346.02° ASPHALT 0 ft / 0 m 190 ft / 58 m PREC-APP CENTERLINE EDGE THRESHOLD

MMCL

Details ICAO MMCL (CUL)
Name Culiacan Intl
Region Mexico
Timezone America/Mazatlan (UTC-6.0)
Stats Elevation 107 ft / 33 m (AMSL)
Location 24.764800° -107.475000°
Runways 1
Magnetic Variation 7.523° E

METAR

MMCL 081845Z 21010KT 10SM SKC 32/15 A2992 RMK HZY

Decode

TAF

TAF MMCL 081628Z 0818/0918 24010KT P6SM SKC FM090300 24005KT P6SM SKC FM091200 13005KT P6SM SCT230

Decode

Destination Runways

ID Width Length Bearing (true/mag) Surface Threshold Overrun Markings Lighting
02 148 ft / 45 m 7,378 ft / 2,249 m 32.97° / 25.45° ASPHALT 0 ft / 0 m 0 ft / 0 m PREC-APP EDGE THRESHOLD TDZ REIL-OMNI
20 148 ft / 45 m 7,378 ft / 2,249 m 212.97° / 205.45° ASPHALT 705 ft / 215 m 197 ft / 60 m PREC-APP EDGE THRESHOLD TDZ REIL-OMNI

Popular Alternatives